createdAt,value
2023-03-20T00:01:31.238Z,1.98
2023-03-20T00:04:24.039Z,2.00
2023-03-20T00:07:17.569Z,2.22
2023-03-20T00:10:12.038Z,2.40
2023-03-20T00:13:06.353Z,2.15
2023-03-20T00:15:59.806Z,1.95
2023-03-20T00:18:56.244Z,2.25
2023-03-20T00:21:49.216Z,2.40
2023-03-20T00:24:41.870Z,2.42
2023-03-20T00:27:34.927Z,2.30
2023-03-20T00:30:30.721Z,2.05
2023-03-20T00:33:24.451Z,2.00
2023-03-20T00:36:19.324Z,2.28
2023-03-20T00:39:13.067Z,2.30
2023-03-20T00:42:08.639Z,2.30
2023-03-20T00:45:02.421Z,2.10
2023-03-20T00:47:57.401Z,2.38
2023-03-20T00:50:51.234Z,2.15
2023-03-20T00:53:45.078Z,2.25
2023-03-20T00:56:43.852Z,2.10
2023-03-20T00:59:40.991Z,1.75
2023-03-20T01:02:34.864Z,2.40
2023-03-20T01:05:29.063Z,2.53
2023-03-20T01:08:23.844Z,2.42
2023-03-20T01:11:22.845Z,2.33
2023-03-20T01:14:17.822Z,2.20
2023-03-20T01:17:18.130Z,2.60
2023-03-20T01:20:16.539Z,2.67
2023-03-20T01:23:10.595Z,2.38
2023-03-20T01:26:04.151Z,2.42
2023-03-20T01:28:58.479Z,1.73
2023-03-20T01:31:53.533Z,2.10
2023-03-20T01:34:47.575Z,2.17
2023-03-20T01:37:41.673Z,2.38
2023-03-20T01:40:44.552Z,2.38
2023-03-20T01:43:38.080Z,2.35
2023-03-20T01:46:33.105Z,2.33
2023-03-20T01:50:18.804Z,2.30
2023-03-20T01:53:17.237Z,2.70
2023-03-20T01:56:10.393Z,2.60
2023-03-20T01:59:10.662Z,3.00
2023-03-20T02:02:07.037Z,2.65
2023-03-20T02:05:05.315Z,2.92
2023-03-20T02:08:11.452Z,2.70
2023-03-20T02:11:06.548Z,2.92
2023-03-20T02:14:02.369Z,2.63
2023-03-20T02:16:55.387Z,2.50
2023-03-20T02:20:04.438Z,2.65
2023-03-20T02:23:41.098Z,2.50
2023-03-20T02:26:51.481Z,2.53
2023-03-20T02:30:04.854Z,2.25
2023-03-20T02:33:35.111Z,2.45
2023-03-20T02:36:51.007Z,2.78
2023-03-20T02:39:59.047Z,2.20
2023-03-20T02:42:59.385Z,2.70
2023-03-20T02:45:58.494Z,2.38
2023-03-20T02:48:57.750Z,2.53
2023-03-20T02:51:57.848Z,2.58
2023-03-20T02:55:01.960Z,2.88
2023-03-20T02:58:02.558Z,2.67
2023-03-20T03:01:01.985Z,3.25
2023-03-20T03:03:58.121Z,2.75
2023-03-20T03:06:55.761Z,2.60
2023-03-20T03:09:55.248Z,2.80
2023-03-20T03:12:50.632Z,2.53
2023-03-20T03:15:47.879Z,3.17
2023-03-20T03:18:43.223Z,2.30
2023-03-20T03:21:38.563Z,2.55
2023-03-20T03:24:41.315Z,2.58
2023-03-20T03:27:39.045Z,2.85
2023-03-20T03:30:35.388Z,2.88
2023-03-20T03:33:30.975Z,2.85
2023-03-20T03:36:35.182Z,3.22
2023-03-20T03:39:37.853Z,2.88
2023-03-20T03:42:36.326Z,3.05
2023-03-20T03:45:36.531Z,2.28
2023-03-20T03:48:34.357Z,3.03
2023-03-20T03:51:32.862Z,2.83
2023-03-20T03:54:29.339Z,2.80
2023-03-20T03:57:26.542Z,2.80
2023-03-20T04:00:23.674Z,2.75
2023-03-20T04:03:21.154Z,3.00
2023-03-20T04:06:14.244Z,2.97
2023-03-20T04:09:07.131Z,2.85
2023-03-20T04:12:00.220Z,3.35
2023-03-20T04:14:52.953Z,2.85
2023-03-20T04:17:46.327Z,2.90
2023-03-20T04:20:40.420Z,2.85
2023-03-20T04:23:33.090Z,2.80
2023-03-20T04:26:26.339Z,3.38
2023-03-20T04:29:19.041Z,3.05
2023-03-20T04:32:12.886Z,2.90
2023-03-20T04:35:07.370Z,3.30
2023-03-20T04:38:01.227Z,3.15
2023-03-20T04:40:54.366Z,3.35
2023-03-20T04:43:47.353Z,3.25
2023-03-20T04:46:40.673Z,3.08
2023-03-20T04:49:34.408Z,2.80
2023-03-20T04:52:27.536Z,3.30
2023-03-20T04:55:22.812Z,3.03
2023-03-20T04:58:16.130Z,3.10
2023-03-20T05:01:09.381Z,3.67
2023-03-20T05:04:02.248Z,3.28
2023-03-20T05:06:55.211Z,3.17
2023-03-20T05:09:48.313Z,2.95
2023-03-20T05:12:42.584Z,2.80
2023-03-20T05:15:36.061Z,2.65
2023-03-20T05:18:29.069Z,3.90
2023-03-20T05:21:22.065Z,3.22
2023-03-20T05:24:15.829Z,3.28
2023-03-20T05:27:09.149Z,4.10
2023-03-20T05:30:04.291Z,3.63
2023-03-20T05:32:57.269Z,3.47
2023-03-20T05:35:50.438Z,3.60
2023-03-20T05:38:43.102Z,3.60
2023-03-20T05:41:36.488Z,3.75
2023-03-20T05:44:29.416Z,3.70
2023-03-20T05:47:26.017Z,3.67
2023-03-20T05:50:19.189Z,3.78
2023-03-20T05:53:12.450Z,4.05
2023-03-20T05:56:06.052Z,4.00
2023-03-20T05:58:59.125Z,4.55
2023-03-20T06:01:52.567Z,4.53
2023-03-20T06:04:46.747Z,5.45
2023-03-20T06:07:40.360Z,6.18
2023-03-20T06:10:33.428Z,5.15
2023-03-20T06:13:26.406Z,6.28
2023-03-20T06:16:19.696Z,5.65
2023-03-20T06:19:13.226Z,6.47
2023-03-20T06:22:08.143Z,6.32
2023-03-20T06:25:01.647Z,7.13
2023-03-20T06:27:55.182Z,7.00
2023-03-20T06:30:48.397Z,7.07
2023-03-20T06:33:41.179Z,6.97
2023-03-20T06:36:34.403Z,7.93
2023-03-20T06:39:29.474Z,6.88
2023-03-20T06:42:22.183Z,7.70
2023-03-20T06:45:15.941Z,7.97
2023-03-20T06:48:09.776Z,7.63
2023-03-20T06:51:03.136Z,8.57
2023-03-20T06:53:56.565Z,8.05
2023-03-20T06:56:51.425Z,10.10
2023-03-20T06:59:44.608Z,9.07
2023-03-20T07:02:38.172Z,9.82
2023-03-20T07:05:32.396Z,10.25
2023-03-20T07:08:25.272Z,10.30
2023-03-20T07:11:18.568Z,10.20
2023-03-20T07:14:12.495Z,9.88
2023-03-20T07:17:05.479Z,10.07
2023-03-20T07:19:57.978Z,11.57
2023-03-20T07:22:51.664Z,11.45
2023-03-20T07:25:46.068Z,11.55
2023-03-20T07:28:39.340Z,11.85
2023-03-20T07:31:33.909Z,11.63
2023-03-20T07:34:27.244Z,10.13
2023-03-20T07:37:20.348Z,9.70
2023-03-20T07:40:14.196Z,8.32
2023-03-20T07:43:07.368Z,6.85
2023-03-20T07:46:03.227Z,7.13
2023-03-20T07:48:58.131Z,5.80
2023-03-20T07:51:51.627Z,5.43
2023-03-20T07:54:44.522Z,5.53
2023-03-20T07:57:37.112Z,5.85
2023-03-20T08:00:31.185Z,5.65
2023-03-20T08:03:24.384Z,5.13
2023-03-20T08:06:18.604Z,3.92
2023-03-20T08:09:11.196Z,4.03
2023-03-20T08:12:04.632Z,4.30
2023-03-20T08:14:57.044Z,4.15
2023-03-20T08:17:50.805Z,3.95
2023-03-20T08:20:44.562Z,3.35
2023-03-20T08:23:38.742Z,3.40
2023-03-20T08:26:32.510Z,3.45
2023-03-20T08:29:25.904Z,3.83
2023-03-20T08:32:19.152Z,4.80
2023-03-20T08:35:29.632Z,3.70
2023-03-20T08:38:25.815Z,3.28
2023-03-20T08:41:21.015Z,3.30
2023-03-20T08:44:14.606Z,3.58
2023-03-20T08:47:07.884Z,3.78
2023-03-20T08:50:01.136Z,3.65
2023-03-20T08:52:54.541Z,3.60
2023-03-20T08:55:50.021Z,2.90
2023-03-20T08:58:44.672Z,3.20
2023-03-20T09:01:48.786Z,3.20
2023-03-20T09:04:42.359Z,3.05
2023-03-20T09:07:35.812Z,2.80
2023-03-20T09:10:29.546Z,2.80
2023-03-20T09:13:27.491Z,3.30
2023-03-20T09:16:22.926Z,2.80
2023-03-20T09:19:16.267Z,3.33
2023-03-20T09:22:09.559Z,2.60
2023-03-20T09:25:02.788Z,2.63
2023-03-20T09:27:56.485Z,2.85
2023-03-20T09:30:49.644Z,2.90
2023-03-20T09:33:43.969Z,2.60
2023-03-20T09:36:37.701Z,3.05
2023-03-20T09:39:30.588Z,2.58
2023-03-20T09:42:33.277Z,2.65
2023-03-20T09:45:38.804Z,2.88
2023-03-20T09:48:41.683Z,2.83
2023-03-20T09:51:42.898Z,2.83
2023-03-20T09:54:53.255Z,2.47
2023-03-20T09:57:52.359Z,2.88
2023-03-20T10:00:47.427Z,2.85
2023-03-20T10:03:44.793Z,2.67
2023-03-20T10:06:39.911Z,2.72
2023-03-20T10:09:34.715Z,2.25
2023-03-20T10:12:48.094Z,2.67
2023-03-20T10:15:48.207Z,2.55
2023-03-20T10:18:48.327Z,2.65
2023-03-20T10:21:45.740Z,2.65
2023-03-20T10:24:43.286Z,2.28
2023-03-20T10:27:41.247Z,2.20
2023-03-20T10:30:51.960Z,2.55
2023-03-20T10:33:58.433Z,2.80
2023-03-20T10:37:06.533Z,2.55
2023-03-20T10:40:14.936Z,2.90
2023-03-20T10:43:16.351Z,2.72
2023-03-20T10:46:14.839Z,2.40
2023-03-20T10:49:15.373Z,2.20
2023-03-20T10:52:15.984Z,2.60
2023-03-20T10:55:15.529Z,2.60
2023-03-20T10:58:17.903Z,2.63
2023-03-20T11:01:12.107Z,2.08
2023-03-20T11:04:06.220Z,2.75
2023-03-20T11:07:05.402Z,2.25
2023-03-20T11:10:13.296Z,2.35
2023-03-20T11:13:16.936Z,2.28
2023-03-20T11:16:17.885Z,1.85
2023-03-20T11:19:14.400Z,2.47
2023-03-20T11:22:25.454Z,2.13
2023-03-20T11:25:32.000Z,1.88
2023-03-20T11:28:32.097Z,1.90
2023-03-20T11:31:30.006Z,2.08
2023-03-20T11:34:29.064Z,2.10
2023-03-20T11:37:25.842Z,2.10
2023-03-20T11:40:24.269Z,5.57
2023-03-20T11:43:21.645Z,8.10
2023-03-20T11:46:15.468Z,6.72
2023-03-20T11:49:21.441Z,5.13
2023-03-20T11:52:16.513Z,4.78
2023-03-20T11:55:26.139Z,3.92
2023-03-20T11:58:21.322Z,3.60
2023-03-20T12:01:15.266Z,3.22
2023-03-20T12:04:12.003Z,3.17
2023-03-20T12:07:12.552Z,3.10
2023-03-20T12:10:09.057Z,3.45
2023-03-20T12:13:07.701Z,2.63
2023-03-20T12:16:06.240Z,2.65
2023-03-20T12:19:05.400Z,2.72
2023-03-20T12:22:04.401Z,2.33
2023-03-20T12:25:05.155Z,2.22
2023-03-20T12:28:05.088Z,2.42
2023-03-20T12:31:08.646Z,2.50
2023-03-20T12:34:05.972Z,2.03
2023-03-20T12:37:00.291Z,2.20
2023-03-20T12:39:56.021Z,2.30
2023-03-20T12:43:03.249Z,2.40
2023-03-20T12:46:04.002Z,2.45
2023-03-20T12:49:08.509Z,2.25
2023-03-20T12:52:11.537Z,2.72
2023-03-20T12:55:29.631Z,2.20
2023-03-20T12:58:31.432Z,2.25
2023-03-20T13:01:31.913Z,1.95
2023-03-20T13:04:51.159Z,2.28
2023-03-20T13:08:04.517Z,1.88
2023-03-20T13:11:04.014Z,2.10
2023-03-20T13:14:03.496Z,1.70
2023-03-20T13:17:05.843Z,2.05
2023-03-20T13:20:18.079Z,2.30
2023-03-20T13:23:20.581Z,2.20
2023-03-20T13:26:25.696Z,2.60
2023-03-20T13:29:28.845Z,2.10
2023-03-20T13:32:31.192Z,1.98
2023-03-20T13:35:44.579Z,2.10
2023-03-20T13:38:42.874Z,2.28
2023-03-20T13:41:36.900Z,2.00
2023-03-20T13:44:31.328Z,2.30
2023-03-20T13:47:28.430Z,2.47
2023-03-20T13:50:41.650Z,2.00
2023-03-20T13:53:45.773Z,2.00
2023-03-20T13:56:45.875Z,1.80
2023-03-20T13:59:59.878Z,1.88
2023-03-20T14:03:08.467Z,1.60
2023-03-20T14:06:16.563Z,2.20
2023-03-20T14:09:34.360Z,2.20
2023-03-20T14:12:33.093Z,1.85
2023-03-20T14:15:29.260Z,1.88
2023-03-20T14:18:24.512Z,2.13
2023-03-20T14:21:24.728Z,2.30
2023-03-20T14:24:20.242Z,1.70
2023-03-20T14:27:29.884Z,1.80
2023-03-20T14:30:42.720Z,2.03
2023-03-20T14:33:42.555Z,1.98
2023-03-20T14:36:52.291Z,1.85
2023-03-20T14:39:51.900Z,2.00
2023-03-20T14:42:52.935Z,1.98
2023-03-20T14:45:53.267Z,1.70
2023-03-20T14:48:51.573Z,1.60
2023-03-20T14:51:50.738Z,1.58
2023-03-20T14:54:43.810Z,1.65
2023-03-20T14:57:55.123Z,2.13
2023-03-20T15:00:51.264Z,1.65
2023-03-20T15:03:48.104Z,1.80
2023-03-20T15:06:46.559Z,2.03
2023-03-20T15:09:44.328Z,1.75
2023-03-20T15:12:39.591Z,1.60
2023-03-20T15:15:34.109Z,1.60
2023-03-20T15:18:28.965Z,1.90
2023-03-20T15:21:25.290Z,1.70
2023-03-20T15:24:23.059Z,2.50
2023-03-20T15:27:17.949Z,2.58
2023-03-20T15:30:16.149Z,2.70
2023-03-20T15:33:18.118Z,2.40
2023-03-20T15:36:17.050Z,2.10
2023-03-20T15:39:16.419Z,2.13
2023-03-20T15:42:14.847Z,2.05
2023-03-20T15:45:23.371Z,1.70
2023-03-20T15:48:18.449Z,1.70
2023-03-20T15:51:12.440Z,1.70
2023-03-20T15:54:07.988Z,1.70
2023-03-20T15:57:03.179Z,1.90
2023-03-20T15:59:57.170Z,1.92
2023-03-20T16:02:52.111Z,1.80
2023-03-20T16:05:47.262Z,2.20
2023-03-20T16:08:41.238Z,2.00
2023-03-20T16:11:38.949Z,1.85
2023-03-20T16:14:34.984Z,1.42
2023-03-20T16:17:28.728Z,1.55
2023-03-20T16:20:25.379Z,1.80
2023-03-20T16:23:29.672Z,1.80
2023-03-20T16:26:24.942Z,1.80
2023-03-20T16:29:19.489Z,1.80
2023-03-20T16:32:26.755Z,1.70
2023-03-20T16:35:22.731Z,2.13
2023-03-20T16:38:24.818Z,1.85
2023-03-20T16:41:26.118Z,1.58
2023-03-20T16:44:23.204Z,1.60
2023-03-20T16:47:20.581Z,1.80
2023-03-20T16:50:18.793Z,1.67
2023-03-20T16:53:15.299Z,1.85
2023-03-20T16:56:14.679Z,1.45
2023-03-20T16:59:09.411Z,1.45
2023-03-20T17:02:03.108Z,1.60
2023-03-20T17:04:57.959Z,1.42
2023-03-20T17:07:51.860Z,1.48
2023-03-20T17:10:48.904Z,1.33
2023-03-20T17:13:43.296Z,1.40
2023-03-20T17:16:38.003Z,1.40
2023-03-20T17:19:33.676Z,1.45
2023-03-20T17:22:29.470Z,1.50
2023-03-20T17:25:23.056Z,1.30
2023-03-20T17:28:20.522Z,1.63
2023-03-20T17:31:17.225Z,1.50
2023-03-20T17:34:13.825Z,1.73
2023-03-20T17:37:10.092Z,1.33
2023-03-20T17:40:03.341Z,1.80
2023-03-20T17:42:56.824Z,1.55
2023-03-20T17:45:50.769Z,1.33
2023-03-20T17:48:45.702Z,1.40
2023-03-20T17:51:38.589Z,1.23
2023-03-20T17:54:31.769Z,1.30
2023-03-20T17:57:33.168Z,1.25
2023-03-20T18:00:27.557Z,1.30
2023-03-20T18:03:21.500Z,1.00
2023-03-20T18:06:24.366Z,0.90
2023-03-20T18:09:17.875Z,1.35
2023-03-20T18:12:14.332Z,1.17
2023-03-20T18:15:10.734Z,1.30
2023-03-20T18:18:03.732Z,0.95
2023-03-20T18:20:57.463Z,1.27
2023-03-20T18:23:52.326Z,1.10
2023-03-20T18:26:46.413Z,1.10
2023-03-20T18:29:40.013Z,1.08
2023-03-20T18:32:32.848Z,1.20
2023-03-20T18:35:26.030Z,1.20
2023-03-20T18:38:18.991Z,1.00
2023-03-20T18:41:13.203Z,1.00
2023-03-20T18:44:07.102Z,1.20
2023-03-20T18:47:00.046Z,1.20
2023-03-20T18:49:53.188Z,1.30
2023-03-20T18:52:46.828Z,1.35
2023-03-20T18:55:39.831Z,1.05
2023-03-20T18:58:34.253Z,1.20
2023-03-20T19:01:27.710Z,1.00
2023-03-20T19:04:22.917Z,0.70
2023-03-20T19:07:15.792Z,1.08
2023-03-20T19:10:24.338Z,1.00
2023-03-20T19:13:19.703Z,1.00
2023-03-20T19:16:24.661Z,1.00
2023-03-20T19:19:17.889Z,1.00
2023-03-20T19:22:26.580Z,1.23
2023-03-20T19:25:22.145Z,1.10
2023-03-20T19:28:21.856Z,1.10
2023-03-20T19:31:17.879Z,0.95
2023-03-20T19:34:28.073Z,0.85
2023-03-20T19:37:24.358Z,1.40
2023-03-20T19:40:35.193Z,1.10
2023-03-20T19:43:29.331Z,0.90
2023-03-20T19:46:39.280Z,1.48
2023-03-20T19:49:33.160Z,1.05
2023-03-20T19:52:31.677Z,0.75
2023-03-20T19:55:25.769Z,0.90
2023-03-20T19:58:19.681Z,0.70
2023-03-20T20:01:18.271Z,0.88
2023-03-20T20:04:13.502Z,0.80
2023-03-20T20:07:53.346Z,1.15
2023-03-20T20:10:20.984Z,0.80
2023-03-20T20:13:17.283Z,1.10
2023-03-20T20:16:10.867Z,1.20
2023-03-20T20:19:03.961Z,0.85
2023-03-20T20:22:24.816Z,0.93
2023-03-20T20:25:12.249Z,1.30
2023-03-20T20:28:04.772Z,1.30
2023-03-20T20:30:59.335Z,1.15
2023-03-20T20:34:22.490Z,1.00
2023-03-20T20:40:22.033Z,0.90
2023-03-20T20:43:34.807Z,1.35
2023-03-20T20:46:27.763Z,0.95
2023-03-20T20:49:21.063Z,0.98
2023-03-20T20:52:16.418Z,1.15
2023-03-20T20:55:22.503Z,0.93
2023-03-20T20:58:16.824Z,0.80
2023-03-20T21:01:10.324Z,1.30
2023-03-20T21:04:04.363Z,0.90
2023-03-20T21:07:09.351Z,0.90
2023-03-20T21:10:05.976Z,0.90
2023-03-20T21:13:00.058Z,1.08
2023-03-20T21:15:58.628Z,0.88
2023-03-20T21:18:52.710Z,0.90
2023-03-20T21:21:46.029Z,1.00
2023-03-20T21:24:39.695Z,1.08
2023-03-20T21:27:34.452Z,0.90
2023-03-20T21:30:28.581Z,0.85
2023-03-20T21:33:22.528Z,1.00
2023-03-20T21:36:16.192Z,0.73
2023-03-20T21:39:09.754Z,1.00
2023-03-20T21:42:03.578Z,1.30
2023-03-20T21:45:56.044Z,0.80
2023-03-20T21:48:45.679Z,0.95
2023-03-20T21:58:36.935Z,0.95
2023-03-20T22:17:56.154Z,0.80
2023-03-20T22:21:15.982Z,0.85
2023-03-20T22:24:31.117Z,1.10
2023-03-20T22:27:43.627Z,0.82
2023-03-20T22:31:03.327Z,0.82
2023-03-20T22:40:39.310Z,0.75
2023-03-20T22:44:07.862Z,0.80
2023-03-20T22:46:44.338Z,0.70
2023-03-20T22:49:35.531Z,0.73
2023-03-20T22:52:41.992Z,0.90
2023-03-20T22:55:43.885Z,0.80
2023-03-20T22:58:38.003Z,0.95
2023-03-20T23:01:31.403Z,0.60
2023-03-20T23:04:25.772Z,0.60
2023-03-20T23:07:20.379Z,0.70
2023-03-20T23:10:14.171Z,0.88
2023-03-20T23:13:07.449Z,0.73
2023-03-20T23:16:01.030Z,0.80
2023-03-20T23:18:54.365Z,0.70
2023-03-20T23:21:47.221Z,0.88
2023-03-20T23:24:42.378Z,0.90
2023-03-20T23:27:35.072Z,0.90
2023-03-20T23:30:37.869Z,0.90
2023-03-20T23:33:36.994Z,1.00
2023-03-20T23:36:36.857Z,0.80
2023-03-20T23:39:30.370Z,0.63
2023-03-20T23:42:30.699Z,1.10
2023-03-20T23:45:24.061Z,1.70
2023-03-20T23:48:17.721Z,1.58
2023-03-20T23:51:11.474Z,1.63
2023-03-20T23:54:05.616Z,2.33
2023-03-20T23:56:59.264Z,2.28
2023-03-20T23:59:53.557Z,2.05
